createdAt,value
2022-09-10T00:01:21.685Z,96710.50
2022-09-10T00:03:51.441Z,96704.94
2022-09-10T00:06:18.955Z,96708.09
2022-09-10T00:08:46.830Z,96711.00
2022-09-10T00:11:15.068Z,96709.59
2022-09-10T00:13:42.609Z,96704.59
2022-09-10T00:16:13.038Z,96706.22
2022-09-10T00:18:40.548Z,96701.25
2022-09-10T00:21:13.246Z,96699.94
2022-09-10T00:23:40.550Z,96708.28
2022-09-10T00:26:22.359Z,96704.38
2022-09-10T00:28:52.752Z,96705.09
2022-09-10T00:31:21.809Z,96705.63
2022-09-10T00:33:50.271Z,96706.91
2022-09-10T00:36:23.171Z,96701.88
2022-09-10T00:38:51.255Z,96696.31
2022-09-10T00:41:20.416Z,96693.56
2022-09-10T00:43:58.659Z,96688.88
2022-09-10T00:46:34.206Z,96698.31
2022-09-10T00:49:17.802Z,96700.91
2022-09-10T00:51:47.088Z,96698.25
2022-09-10T00:54:17.250Z,96687.44
2022-09-10T00:56:45.360Z,96685.06
2022-09-10T00:59:16.383Z,96691.59
2022-09-10T01:01:43.315Z,96683.63
2022-09-10T01:04:10.717Z,96692.88
2022-09-10T01:06:40.321Z,96691.03
2022-09-10T01:09:07.988Z,96686.81
2022-09-10T01:11:52.217Z,96692.03
2022-09-10T01:14:22.226Z,96694.91
2022-09-10T01:17:03.608Z,96690.88
2022-09-10T01:19:41.362Z,96694.78
2022-09-10T01:22:47.691Z,96697.69
2022-09-10T01:25:23.484Z,96699.50
2022-09-10T01:27:54.184Z,96701.09
2022-09-10T01:30:31.962Z,96692.19
2022-09-10T01:33:09.425Z,96688.56
2022-09-10T01:35:49.742Z,96689.41
2022-09-10T01:38:22.904Z,96683.13
2022-09-10T01:40:52.747Z,96682.34
2022-09-10T01:43:22.598Z,96682.84
2022-09-10T01:46:16.214Z,96682.34
2022-09-10T01:49:10.359Z,96684.44
2022-09-10T01:52:28.579Z,96684.91
2022-09-10T01:54:59.140Z,96681.44
2022-09-10T01:58:00.942Z,96687.72
2022-09-10T02:00:39.813Z,96690.41
2022-09-10T02:03:13.445Z,96691.50
2022-09-10T02:05:43.543Z,96692.06
2022-09-10T02:08:23.493Z,96687.16
2022-09-10T02:10:54.139Z,96690.56
2022-09-10T02:13:24.020Z,96682.88
2022-09-10T02:16:16.662Z,96677.84
2022-09-10T02:18:44.935Z,96679.66
2022-09-10T02:21:11.615Z,96669.44
2022-09-10T02:23:53.623Z,96672.91
2022-09-10T02:26:20.236Z,96673.13
2022-09-10T02:28:49.659Z,96661.03
2022-09-10T02:31:17.603Z,96657.09
2022-09-10T02:33:45.047Z,96655.28
2022-09-10T02:36:11.905Z,96651.84
2022-09-10T02:38:38.530Z,96647.63
2022-09-10T02:41:05.340Z,96643.97
2022-09-10T02:43:31.913Z,96637.94
2022-09-10T02:46:00.361Z,96647.47
2022-09-10T02:48:27.889Z,96649.34
2022-09-10T02:50:57.424Z,96658.28
2022-09-10T02:53:26.552Z,96661.41
2022-09-10T02:55:56.021Z,96664.56
2022-09-10T02:58:22.549Z,96663.47
2022-09-10T03:00:49.719Z,96664.03
2022-09-10T03:03:17.362Z,96662.34
2022-09-10T03:05:44.058Z,96663.66
2022-09-10T03:08:10.585Z,96662.56
2022-09-10T03:10:41.000Z,96667.84
2022-09-10T03:13:07.866Z,96661.75
2022-09-10T03:15:34.509Z,96669.66
2022-09-10T03:18:00.945Z,96661.50
2022-09-10T03:20:27.508Z,96658.25
2022-09-10T03:22:53.930Z,96660.56
2022-09-10T03:25:20.495Z,96658.53
2022-09-10T03:27:47.026Z,96656.66
2022-09-10T03:30:13.713Z,96652.50
2022-09-10T03:32:40.387Z,96656.75
2022-09-10T03:35:10.077Z,96667.63
2022-09-10T03:37:37.897Z,96656.03
2022-09-10T03:40:05.757Z,96663.22
2022-09-10T03:42:32.629Z,96656.66
2022-09-10T03:44:59.844Z,96649.25
2022-09-10T03:47:26.346Z,96664.28
2022-09-10T03:49:52.925Z,96663.78
2022-09-10T03:52:22.671Z,96659.88
2022-09-10T03:54:51.098Z,96661.44
2022-09-10T03:57:18.023Z,96656.66
2022-09-10T03:59:45.924Z,96660.94
2022-09-10T04:02:12.517Z,96663.34
2022-09-10T04:04:39.019Z,96666.91
2022-09-10T04:07:05.577Z,96661.84
2022-09-10T04:09:32.844Z,96658.53
2022-09-10T04:12:00.231Z,96663.06
2022-09-10T04:14:29.966Z,96666.69
2022-09-10T04:16:58.905Z,96665.13
2022-09-10T04:19:28.009Z,96674.56
2022-09-10T04:21:55.193Z,96671.84
2022-09-10T04:24:22.759Z,96670.91
2022-09-10T04:26:49.447Z,96667.25
2022-09-10T04:29:17.943Z,96670.16
2022-09-10T04:31:46.722Z,96667.78
2022-09-10T04:34:15.839Z,96672.13
2022-09-10T04:36:42.945Z,96684.88
2022-09-10T04:39:09.565Z,96683.56
2022-09-10T04:41:36.994Z,96668.63
2022-09-10T04:44:05.271Z,96676.91
2022-09-10T04:46:32.050Z,96678.53
2022-09-10T04:49:00.808Z,96669.03
2022-09-10T04:51:27.354Z,96670.41
2022-09-10T04:53:54.920Z,96667.78
2022-09-10T04:56:26.595Z,96667.25
2022-09-10T04:58:53.255Z,96672.00
2022-09-10T05:01:19.879Z,96673.09
2022-09-10T05:03:49.919Z,96672.84
2022-09-10T05:06:16.473Z,96676.53
2022-09-10T05:08:45.719Z,96674.72
2022-09-10T05:11:13.220Z,96677.63
2022-09-10T05:13:41.676Z,96681.84
2022-09-10T05:16:08.506Z,96680.81
2022-09-10T05:18:35.190Z,96683.19
2022-09-10T05:21:02.525Z,96681.06
2022-09-10T05:23:29.031Z,96682.97
2022-09-10T05:25:59.615Z,96684.28
2022-09-10T05:28:27.097Z,96684.00
2022-09-10T05:30:53.800Z,96688.47
2022-09-10T05:33:23.090Z,96682.97
2022-09-10T05:35:51.799Z,96675.31
2022-09-10T05:38:19.255Z,96681.66
2022-09-10T05:40:45.952Z,96679.56
2022-09-10T05:43:13.063Z,96678.22
2022-09-10T05:45:39.718Z,96679.56
2022-09-10T05:48:07.002Z,96688.53
2022-09-10T05:50:34.134Z,96677.50
2022-09-10T05:53:01.215Z,96682.50
2022-09-10T05:55:31.209Z,96680.19
2022-09-10T05:57:58.498Z,96685.22
2022-09-10T06:00:25.497Z,96686.78
2022-09-10T06:02:59.071Z,96697.34
2022-09-10T06:05:30.382Z,96692.34
2022-09-10T06:07:57.307Z,96696.88
2022-09-10T06:10:23.836Z,96701.97
2022-09-10T06:12:52.075Z,96696.97
2022-09-10T06:15:20.404Z,96701.78
2022-09-10T06:17:48.566Z,96702.06
2022-09-10T06:20:16.141Z,96700.28
2022-09-10T06:22:44.304Z,96702.66
2022-09-10T06:25:12.551Z,96706.69
2022-09-10T06:27:39.452Z,96708.31
2022-09-10T06:30:06.963Z,96708.28
2022-09-10T06:32:34.575Z,96715.44
2022-09-10T06:35:02.436Z,96710.38
2022-09-10T06:37:28.933Z,96713.31
2022-09-10T06:39:55.603Z,96703.81
2022-09-10T06:42:23.819Z,96717.81
2022-09-10T06:45:06.509Z,96720.69
2022-09-10T06:48:37.201Z,96724.34
2022-09-10T06:50:54.637Z,96718.25
2022-09-10T06:53:27.616Z,96719.06
2022-09-10T06:55:55.180Z,96718.81
2022-09-10T06:58:24.497Z,96723.06
2022-09-10T07:00:52.100Z,96723.06
2022-09-10T07:03:21.971Z,96720.69
2022-09-10T07:05:50.021Z,96720.16
2022-09-10T07:08:17.805Z,96720.44
2022-09-10T07:10:48.299Z,96726.50
2022-09-10T07:13:14.857Z,96723.59
2022-09-10T07:15:46.674Z,96725.50
2022-09-10T07:18:14.444Z,96724.94
2022-09-10T07:20:46.334Z,96723.06
2022-09-10T07:23:14.342Z,96736.56
2022-09-10T07:25:42.108Z,96736.84
2022-09-10T07:28:18.140Z,96733.38
2022-09-10T07:30:47.496Z,96739.47
2022-09-10T07:33:15.140Z,96734.19
2022-09-10T07:35:43.252Z,96738.13
2022-09-10T07:38:16.921Z,96738.94
2022-09-10T07:40:45.070Z,96738.16
2022-09-10T07:43:11.824Z,96744.50
2022-09-10T07:45:40.151Z,96743.47
2022-09-10T07:48:06.668Z,96746.13
2022-09-10T07:50:38.297Z,96747.69
2022-09-10T07:53:05.370Z,96753.50
2022-09-10T07:55:32.124Z,96750.84
2022-09-10T07:58:00.193Z,96758.53
2022-09-10T08:00:29.159Z,96753.50
2022-09-10T08:02:59.020Z,96756.72
2022-09-10T08:05:28.789Z,96765.16
2022-09-10T08:07:55.435Z,96765.13
2022-09-10T08:10:24.486Z,96771.47
2022-09-10T08:12:51.910Z,96769.34
2022-09-10T08:15:18.469Z,96757.22
2022-09-10T08:17:45.324Z,96764.88
2022-09-10T08:20:13.434Z,96776.78
2022-09-10T08:22:43.183Z,96779.16
2022-09-10T08:25:10.627Z,96781.56
2022-09-10T08:27:37.257Z,96779.19
2022-09-10T08:30:06.439Z,96781.28
2022-09-10T08:32:35.075Z,96781.50
2022-09-10T08:35:04.132Z,96781.28
2022-09-10T08:37:32.548Z,96787.75
2022-09-10T08:39:59.449Z,96787.22
2022-09-10T08:42:39.992Z,96785.69
2022-09-10T08:45:14.815Z,96793.91
2022-09-10T08:48:13.866Z,96790.44
2022-09-10T08:50:46.948Z,96786.25
2022-09-10T08:53:25.905Z,96784.38
2022-09-10T08:56:03.764Z,96786.16
2022-09-10T08:58:42.327Z,96781.56
2022-09-10T09:01:14.925Z,96792.16
2022-09-10T09:03:47.377Z,96791.13
2022-09-10T09:06:27.328Z,96790.28
2022-09-10T09:08:54.975Z,96787.19
2022-09-10T09:11:51.113Z,96785.03
2022-09-10T09:14:30.558Z,96795.16
2022-09-10T09:17:07.663Z,96794.63
2022-09-10T09:19:59.083Z,96799.22
2022-09-10T09:22:40.161Z,96806.91
2022-09-10T09:25:42.969Z,96795.16
2022-09-10T09:28:19.095Z,96799.00
2022-09-10T09:30:49.701Z,96789.69
2022-09-10T09:33:22.545Z,96791.72
2022-09-10T09:35:58.952Z,96787.28
2022-09-10T09:38:37.265Z,96789.34
2022-09-10T09:41:34.875Z,96782.91
2022-09-10T09:44:24.201Z,96792.50
2022-09-10T09:46:51.242Z,96788.31
2022-09-10T09:49:17.746Z,96785.47
2022-09-10T09:51:48.697Z,96780.22
2022-09-10T09:54:56.615Z,96772.94
2022-09-10T09:57:16.202Z,96771.53
2022-09-10T09:59:42.662Z,96768.28
2022-09-10T10:02:16.546Z,96759.00
2022-09-10T10:04:55.190Z,96767.22
2022-09-10T10:07:33.910Z,96753.44
2022-09-10T10:10:02.293Z,96761.38
2022-09-10T10:12:31.639Z,96758.88
2022-09-10T10:14:59.781Z,96755.03
2022-09-10T10:17:40.087Z,96755.66
2022-09-10T10:20:12.808Z,96755.97
2022-09-10T10:22:41.885Z,96755.66
2022-09-10T10:25:40.344Z,96747.66
2022-09-10T10:28:22.644Z,96746.06
2022-09-10T10:30:54.585Z,96739.50
2022-09-10T10:33:31.319Z,96749.94
2022-09-10T10:36:04.009Z,96734.09
2022-09-10T10:38:39.788Z,96730.56
2022-09-10T10:41:08.023Z,96735.69
2022-09-10T10:43:52.981Z,96729.19
2022-09-10T10:46:29.767Z,96737.03
2022-09-10T10:49:33.834Z,96724.72
2022-09-10T10:52:21.218Z,96728.03
2022-09-10T10:55:12.813Z,96721.22
2022-09-10T10:58:10.801Z,96715.91
2022-09-10T11:00:45.895Z,96701.13
2022-09-10T11:03:21.267Z,96712.66
2022-09-10T11:05:57.493Z,96705.16
2022-09-10T11:08:35.886Z,96701.34
2022-09-10T11:11:13.331Z,96710.91
2022-09-10T11:13:46.688Z,96707.94
2022-09-10T11:16:42.003Z,96695.06
2022-09-10T11:19:36.881Z,96697.34
2022-09-10T11:22:12.292Z,96698.44
2022-09-10T11:24:57.438Z,96693.50
2022-09-10T11:27:39.927Z,96707.94
2022-09-10T11:30:11.392Z,96698.59
2022-09-10T11:33:09.277Z,96698.41
2022-09-10T11:35:55.549Z,96700.25
2022-09-10T11:38:31.069Z,96702.19
2022-09-10T11:41:17.426Z,96707.22
2022-09-10T11:43:56.174Z,96709.59
2022-09-10T11:46:34.585Z,96703.97
2022-09-10T11:49:16.133Z,96703.16
2022-09-10T11:51:44.894Z,96709.00
2022-09-10T11:54:27.666Z,96704.78
2022-09-10T11:57:00.207Z,96697.88
2022-09-10T11:59:32.684Z,96689.91
2022-09-10T12:02:35.102Z,96690.16
2022-09-10T12:05:32.916Z,96683.78
2022-09-10T12:08:13.770Z,96683.22
2022-09-10T12:11:04.195Z,96675.50
2022-09-10T12:13:33.200Z,96669.66
2022-09-10T12:16:04.403Z,96676.03
2022-09-10T12:18:52.921Z,96673.63
2022-09-10T12:21:39.683Z,96671.03
2022-09-10T12:24:25.645Z,96666.44
2022-09-10T12:26:53.706Z,96673.91
2022-09-10T12:29:33.795Z,96669.09
2022-09-10T12:32:15.532Z,96693.41
2022-09-10T12:34:42.143Z,96684.91
2022-09-10T12:37:11.278Z,96677.41
2022-09-10T12:39:37.955Z,96684.13
2022-09-10T12:42:29.655Z,96689.50
2022-09-10T12:44:56.454Z,96675.09
2022-09-10T12:47:40.658Z,96681.28
2022-09-10T12:50:22.784Z,96685.75
2022-09-10T12:52:58.628Z,96682.81
2022-09-10T12:55:44.971Z,96678.31
2022-09-10T12:58:31.331Z,96682.97
2022-09-10T13:00:58.146Z,96685.53
2022-09-10T13:03:28.019Z,96681.78
2022-09-10T13:05:57.771Z,96693.09
2022-09-10T13:08:41.500Z,96692.56
2022-09-10T13:11:14.446Z,96706.25
2022-09-10T13:13:44.690Z,96705.25
2022-09-10T13:16:38.263Z,96708.97
2022-09-10T13:19:13.506Z,96702.06
2022-09-10T13:21:42.948Z,96702.47
2022-09-10T13:24:35.595Z,96702.81
2022-09-10T13:27:10.177Z,96699.00
2022-09-10T13:29:40.026Z,96710.97
2022-09-10T13:32:34.542Z,96708.22
2022-09-10T13:35:22.197Z,96716.53
2022-09-10T13:38:03.932Z,96713.31
2022-09-10T13:40:39.263Z,96719.06
2022-09-10T13:43:28.441Z,96717.06
2022-09-10T13:46:02.723Z,96707.09
2022-09-10T13:48:46.089Z,96697.16
2022-09-10T13:51:28.002Z,96699.25
2022-09-10T13:53:57.175Z,96686.69
2022-09-10T13:56:28.361Z,96686.28
2022-09-10T13:59:02.024Z,96683.44
2022-09-10T14:01:54.293Z,96681.88
2022-09-10T14:04:33.256Z,96677.44
2022-09-10T14:07:02.796Z,96672.81
2022-09-10T14:09:30.294Z,96673.09
2022-09-10T14:11:59.707Z,96667.34
2022-09-10T14:14:30.192Z,96672.03
2022-09-10T14:17:06.082Z,96669.53
2022-09-10T14:19:43.245Z,96658.44
2022-09-10T14:22:15.186Z,96670.19
2022-09-10T14:24:49.432Z,96665.63
2022-09-10T14:27:28.367Z,96657.88
2022-09-10T14:29:56.510Z,96657.69
2022-09-10T14:32:22.981Z,96653.63
2022-09-10T14:34:49.618Z,96651.28
2022-09-10T14:37:38.030Z,96660.16
2022-09-10T14:40:13.305Z,96654.88
2022-09-10T14:42:39.884Z,96644.19
2022-09-10T14:45:26.333Z,96647.56
2022-09-10T14:47:53.843Z,96661.66
2022-09-10T14:50:38.662Z,96666.16
2022-09-10T14:53:05.106Z,96655.81
2022-09-10T14:55:32.179Z,96661.47
2022-09-10T14:57:59.106Z,96658.88
2022-09-10T15:00:25.987Z,96662.53
2022-09-10T15:02:55.955Z,96668.28
2022-09-10T15:05:22.652Z,96673.63
2022-09-10T15:07:49.181Z,96675.09
2022-09-10T15:10:17.023Z,96667.13
2022-09-10T15:12:49.713Z,96659.22
2022-09-10T15:15:18.116Z,96675.22
2022-09-10T15:17:45.213Z,96665.91
2022-09-10T15:20:16.901Z,96675.06
2022-09-10T15:22:44.019Z,96673.69
2022-09-10T15:25:29.381Z,96662.28
2022-09-10T15:27:55.974Z,96663.06
2022-09-10T15:30:25.595Z,96667.28
2022-09-10T15:32:54.296Z,96660.47
2022-09-10T15:35:24.999Z,96662.13
2022-09-10T15:37:51.451Z,96661.53
2022-09-10T15:40:17.948Z,96661.38
2022-09-10T15:42:44.476Z,96654.06
2022-09-10T15:45:10.934Z,96658.91
2022-09-10T15:47:37.523Z,96641.81
2022-09-10T15:50:04.740Z,96661.25
2022-09-10T15:52:31.167Z,96662.44
2022-09-10T15:54:57.649Z,96656.72
2022-09-10T15:57:24.006Z,96656.84
2022-09-10T15:59:50.446Z,96654.72
2022-09-10T16:02:17.234Z,96651.91
2022-09-10T16:04:43.734Z,96649.78
2022-09-10T16:07:10.953Z,96660.53
2022-09-10T16:09:37.547Z,96661.31
2022-09-10T16:12:04.011Z,96660.44
2022-09-10T16:14:32.046Z,96660.44
2022-09-10T16:16:58.792Z,96663.53
2022-09-10T16:19:25.364Z,96656.16
2022-09-10T16:21:52.989Z,96661.75
2022-09-10T16:24:19.599Z,96670.69
2022-09-10T16:26:47.884Z,96669.25
2022-09-10T16:29:19.505Z,96667.81
2022-09-10T16:31:46.133Z,96668.53
2022-09-10T16:34:16.027Z,96672.03
2022-09-10T16:36:43.646Z,96668.63
2022-09-10T16:39:12.983Z,96678.03
2022-09-10T16:41:41.170Z,96662.84
2022-09-10T16:44:08.850Z,96670.97
2022-09-10T16:46:35.640Z,96675.63
2022-09-10T16:49:03.216Z,96671.19
2022-09-10T16:51:29.734Z,96679.25
2022-09-10T16:53:58.607Z,96670.72
2022-09-10T16:56:25.731Z,96676.03
2022-09-10T16:58:53.072Z,96680.13
2022-09-10T17:01:20.714Z,96681.00
2022-09-10T17:03:52.098Z,96689.28
2022-09-10T17:06:27.403Z,96688.34
2022-09-10T17:08:57.108Z,96681.53
2022-09-10T17:11:26.243Z,96685.28
2022-09-10T17:13:54.247Z,96686.84
2022-09-10T17:16:20.657Z,96691.16
2022-09-10T17:18:48.380Z,96692.78
2022-09-10T17:21:14.995Z,96691.75
2022-09-10T17:23:41.486Z,96695.81
2022-09-10T17:26:09.239Z,96705.34
2022-09-10T17:28:37.089Z,96715.94
2022-09-10T17:31:04.457Z,96717.31
2022-09-10T17:33:31.422Z,96706.22
2022-09-10T17:36:00.383Z,96710.81
2022-09-10T17:38:28.758Z,96705.81
2022-09-10T17:41:02.303Z,96713.53
2022-09-10T17:43:33.982Z,96706.41
2022-09-10T17:46:09.231Z,96719.09
2022-09-10T17:48:36.050Z,96720.97
2022-09-10T17:51:02.624Z,96720.19
2022-09-10T17:53:29.246Z,96729.72
2022-09-10T17:56:02.380Z,96724.44
2022-09-10T17:58:29.154Z,96728.94
2022-09-10T18:00:58.308Z,96726.28
2022-09-10T18:03:24.761Z,96740.56
2022-09-10T18:05:51.266Z,96744.00
2022-09-10T18:08:17.742Z,96747.97
2022-09-10T18:10:45.284Z,96747.69
2022-09-10T18:13:13.360Z,96749.03
2022-09-10T18:15:42.323Z,96743.19
2022-09-10T18:18:09.594Z,96752.97
2022-09-10T18:20:36.083Z,96755.09
2022-09-10T18:23:02.768Z,96754.28
2022-09-10T18:25:30.452Z,96760.09
2022-09-10T18:27:57.757Z,96752.69
2022-09-10T18:30:26.412Z,96765.09
2022-09-10T18:32:53.313Z,96769.34
2022-09-10T18:35:20.575Z,96765.09
2022-09-10T18:37:49.967Z,96760.91
2022-09-10T18:40:18.015Z,96778.09
2022-09-10T18:42:46.706Z,96764.06
2022-09-10T18:45:13.703Z,96759.03
2022-09-10T18:47:47.412Z,96773.59
2022-09-10T18:50:13.886Z,96769.84
2022-09-10T18:52:40.338Z,96778.28
2022-09-10T18:55:07.290Z,96774.31
2022-09-10T18:57:33.775Z,96766.69
2022-09-10T19:00:00.401Z,96762.19
2022-09-10T19:02:26.923Z,96768.28
2022-09-10T19:05:11.749Z,96763.00
2022-09-10T19:07:38.993Z,96757.94
2022-09-10T19:10:07.091Z,96759.22
2022-09-10T19:12:33.838Z,96758.16
2022-09-10T19:15:00.435Z,96763.22
2022-09-10T19:17:26.895Z,96765.28
2022-09-10T19:19:53.292Z,96758.69
2022-09-10T19:22:19.828Z,96763.97
2022-09-10T19:24:55.716Z,96758.66
2022-09-10T19:27:23.858Z,96765.53
2022-09-10T19:29:50.613Z,96763.44
2022-09-10T19:32:19.417Z,96769.47
2022-09-10T19:34:45.993Z,96771.88
2022-09-10T19:37:12.902Z,96759.72
2022-09-10T19:39:39.455Z,96770.28
2022-09-10T19:42:06.765Z,96772.41
2022-09-10T19:44:33.697Z,96757.31
2022-09-10T19:47:00.571Z,96765.75
2022-09-10T19:49:27.539Z,96764.94
2022-09-10T19:51:54.001Z,96774.16
2022-09-10T19:54:22.612Z,96758.06
2022-09-10T19:56:49.660Z,96776.53
2022-09-10T19:59:17.002Z,96770.47
2022-09-10T20:01:45.896Z,96770.19
2022-09-10T20:04:14.152Z,96767.75
2022-09-10T20:06:42.405Z,96770.38
2022-09-10T20:09:10.002Z,96769.56
2022-09-10T20:11:37.139Z,96773.28
2022-09-10T20:14:09.969Z,96770.13
2022-09-10T20:16:38.624Z,96762.66
2022-09-10T20:19:06.466Z,96763.78
2022-09-10T20:21:34.165Z,96775.34
2022-09-10T20:24:00.623Z,96774.84
2022-09-10T20:26:30.623Z,96774.03
2022-09-10T20:29:03.968Z,96773.72
2022-09-10T20:31:32.614Z,96776.81
2022-09-10T20:34:02.540Z,96771.81
2022-09-10T20:36:29.443Z,96776.28
2022-09-10T20:38:56.043Z,96778.91
2022-09-10T20:41:29.959Z,96783.88
2022-09-10T20:44:00.918Z,96786.28
2022-09-10T20:46:29.443Z,96786.81
2022-09-10T20:49:02.648Z,96779.91
2022-09-10T20:51:31.534Z,96778.38
2022-09-10T20:53:58.077Z,96778.88
2022-09-10T20:56:24.466Z,96781.53
2022-09-10T20:58:50.917Z,96781.28
2022-09-10T21:01:22.901Z,96783.41
2022-09-10T21:03:51.997Z,96777.81
2022-09-10T21:06:20.304Z,96771.47
2022-09-10T21:08:47.820Z,96778.91
2022-09-10T21:11:16.993Z,96787.38
2022-09-10T21:13:45.903Z,96788.53
2022-09-10T21:16:13.727Z,96796.41
2022-09-10T21:18:41.763Z,96783.69
2022-09-10T21:21:13.402Z,96791.03
2022-09-10T21:23:43.906Z,96791.22
2022-09-10T21:26:15.563Z,96790.53
2022-09-10T21:28:42.619Z,96794.50
2022-09-10T21:31:09.625Z,96786.03
2022-09-10T21:33:37.015Z,96780.19
2022-09-10T21:36:16.054Z,96791.00
2022-09-10T21:38:49.701Z,96789.47
2022-09-10T21:41:19.176Z,96792.91
2022-09-10T21:43:47.449Z,96781.53
2022-09-10T21:46:15.035Z,96792.31
2022-09-10T21:48:42.429Z,96788.63
2022-09-10T21:51:14.303Z,96788.38
2022-09-10T21:53:42.148Z,96789.94
2022-09-10T21:56:14.162Z,96794.19
2022-09-10T21:58:41.449Z,96795.81
2022-09-10T22:02:23.756Z,96790.53
2022-09-10T22:04:50.358Z,96796.31
2022-09-10T22:07:16.837Z,96795.94
2022-09-10T22:09:43.369Z,96794.66
2022-09-10T22:12:09.813Z,96796.03
2022-09-10T22:14:36.340Z,96789.19
2022-09-10T22:17:03.414Z,96795.03
2022-09-10T22:19:29.985Z,96795.63
2022-09-10T22:21:57.330Z,96791.34
2022-09-10T22:24:24.475Z,96788.94
2022-09-10T22:26:51.044Z,96797.09
2022-09-10T22:29:18.403Z,96792.59
2022-09-10T22:31:45.873Z,96797.34
2022-09-10T22:34:14.237Z,96787.81
2022-09-10T22:36:42.866Z,96792.00
2022-09-10T22:39:15.251Z,96796.25
2022-09-10T22:41:42.939Z,96799.94
2022-09-10T22:44:10.080Z,96791.50
2022-09-10T22:46:37.801Z,96785.47
2022-09-10T22:49:05.508Z,96788.88
2022-09-10T22:51:36.128Z,96787.28
2022-09-10T22:54:04.544Z,96785.69
2022-09-10T22:56:31.072Z,96781.16
2022-09-10T22:58:58.673Z,96789.84
2022-09-10T23:01:36.664Z,96781.44
2022-09-10T23:04:05.015Z,96785.69
2022-09-10T23:06:33.537Z,96789.94
2022-09-10T23:09:09.296Z,96787.31
2022-09-10T23:11:37.112Z,96789.13
2022-09-10T23:14:07.131Z,96793.63
2022-09-10T23:16:38.935Z,96789.16
2022-09-10T23:19:07.924Z,96798.13
2022-09-10T23:21:35.749Z,96792.00
2022-09-10T23:24:05.329Z,96786.78
2022-09-10T23:26:32.679Z,96803.97
2022-09-10T23:29:04.137Z,96794.75
2022-09-10T23:31:32.768Z,96794.75
2022-09-10T23:34:05.454Z,96799.09
2022-09-10T23:36:36.967Z,96802.97
2022-09-10T23:39:07.152Z,96794.25
2022-09-10T23:41:34.355Z,96790.25
2022-09-10T23:44:01.022Z,96790.97
2022-09-10T23:46:27.577Z,96790.53
2022-09-10T23:48:54.821Z,96792.63
2022-09-10T23:51:21.326Z,96793.22
2022-09-10T23:53:49.218Z,96802.41
2022-09-10T23:56:18.830Z,96796.91
2022-09-10T23:58:45.633Z,96798.78
